Time;durP1;ratioP1;P1;durP2;ratioP2;P2;SDS_P1;SDS_P2;PMS_P1;PMS_P2;Temp;Humidity;BMP_temperature;BMP_pressure;BME280_temperature;BME280_humidity;BME280_pressure;Samples;Min_cycle;Max_cycle;Signal;HPM_P1;HPM_P2
2022/04/18 00:01:00;;;;;;;;;;;;;;;13.55;27.74;99898.19;4493579;31;33943;-66
2022/04/18 00:03:29;;;;;;;;;;;;;;;14.07;26.92;99901.78;4475148;31;33590;-67
2022/04/18 00:05:57;;;;;;;;;;;;;;;14.25;26.51;99893.91;4498228;31;34615;-65
2022/04/18 00:08:25;;;;;;;;;;;;;;;14.03;26.89;99889.56;4474923;32;32161;-66
2022/04/18 00:10:54;;;;;;;;;;;;;;;14.32;26.58;99891.56;4485406;32;34227;-65
2022/04/18 00:13:23;;;;;;;;;;;;;;;14.35;26.76;99883.19;4493471;31;33131;-66
2022/04/18 00:15:51;;;;;;;;;;;;;;;14.01;27.41;99891.53;4485141;31;34357;-66
2022/04/18 00:18:20;;;;;;;;;;;;;;;14.34;26.25;99892.25;4485286;31;33276;-65
2022/04/18 00:20:48;;;;;;;;;;;;;;;13.97;27.68;99885.56;4486983;31;34015;-65
2022/04/18 00:23:17;;;;;;;;;;;;;;;14.27;27.63;99891.94;4484736;31;34549;-68
2022/04/18 00:25:46;;;;;;;;;;;;;;;14.13;28.88;99879.72;4489454;31;34415;-65
2022/04/18 00:28:15;;;;;;;;;;;;;;;14.30;28.00;99883.59;4500240;31;33276;-67
2022/04/18 00:30:44;;;;;;;;;;;;;;;14.33;28.06;99882.50;4489152;31;32941;-66
2022/04/18 00:33:12;;;;;;;;;;;;;;;14.28;28.55;99879.34;4488345;31;33196;-68
2022/04/18 00:35:41;;;;;;;;;;;;;;;14.29;27.93;99875.69;4485779;31;33926;-66
2022/04/18 00:38:09;;;;;;;;;;;;;;;14.02;28.92;99877.09;4473332;31;32031;-67
2022/04/18 00:40:38;;;;;;;;;;;;;;;13.75;30.08;99872.28;4488772;31;33845;-65
2022/04/18 00:43:06;;;;;;;;;;;;;;;13.68;30.07;99871.94;4495857;31;34017;-66
2022/04/18 00:45:35;;;;;;;;;;;;;;;14.13;28.40;99873.47;4498935;31;33079;-67
2022/04/18 00:48:04;;;;;;;;;;;;;;;14.12;28.89;99867.22;4495698;31;31965;-66
2022/04/18 00:50:34;;;;;;;;;;;;;;;14.29;28.27;99868.44;4485048;32;34333;-66
2022/04/18 00:53:02;;;;;;;;;;;;;;;14.30;27.65;99859.38;4484598;31;33367;-65
2022/04/18 00:55:32;;;;;;;;;;;;;;;14.01;29.06;99861.94;4470255;32;33343;-67
2022/04/18 00:58:00;;;;;;;;;;;;;;;13.74;29.82;99859.81;4482099;31;32880;-66
2022/04/18 01:00:27;;;;;;;;;;;;;;;13.90;28.28;99859.31;4471835;32;32511;-66
2022/04/18 01:02:57;;;;;;;;;;;;;;;14.14;27.99;99859.03;4483307;32;34678;-65
2022/04/18 01:05:25;;;;;;;;;;;;;;;14.04;28.99;99852.75;4481829;31;33940;-66
2022/04/18 01:07:53;;;;;;;;;;;;;;;14.08;28.96;99855.03;4488155;31;32060;-66
2022/04/18 01:10:24;;;;;;;;;;;;;;;13.96;28.81;99848.91;4484073;31;33784;-64
2022/04/18 01:12:52;;;;;;;;;;;;;;;13.73;29.40;99848.19;4487011;31;34084;-65
2022/04/18 01:15:21;;;;;;;;;;;;;;;13.62;29.49;99839.34;4484993;31;34129;-66
2022/04/18 01:17:51;;;;;;;;;;;;;;;13.72;27.61;99845.62;4486158;31;33580;-65
2022/04/18 01:20:19;;;;;;;;;;;;;;;13.46;28.42;99846.03;4479595;31;33706;-64
2022/04/18 01:22:48;;;;;;;;;;;;;;;13.41;28.87;99840.19;4481645;31;33147;-64
2022/04/18 01:30:58;;;;;;;;;;;;;;;13.19;29.93;99826.81;4482804;31;34119;-66
2022/04/18 01:33:26;;;;;;;;;;;;;;;13.33;29.61;99826.56;4487458;31;34096;-65
2022/04/18 01:35:55;;;;;;;;;;;;;;;13.05;30.08;99820.78;4482611;31;34462;-64
2022/04/18 01:38:24;;;;;;;;;;;;;;;13.55;29.30;99825.56;4486977;31;33495;-63
2022/04/18 01:40:53;;;;;;;;;;;;;;;13.58;29.56;99811.00;4487261;31;35037;-65
2022/04/18 01:43:22;;;;;;;;;;;;;;;13.52;28.79;99813.25;4488232;31;35116;-64
2022/04/18 01:45:51;;;;;;;;;;;;;;;13.46;29.00;99810.22;4487960;31;34259;-63
2022/04/18 01:48:20;;;;;;;;;;;;;;;13.39;30.10;99809.91;4488861;31;33463;-64
2022/04/18 01:50:50;;;;;;;;;;;;;;;13.48;30.13;99806.44;4492475;31;34109;-66
2022/04/18 01:53:23;;;;;;;;;;;;;;;13.54;28.92;99799.66;4468134;32;34294;-68
2022/04/18 01:56:00;;;;;;;;;;;;;;;13.32;29.74;99799.78;4493198;31;33643;-65
2022/04/18 01:58:31;;;;;;;;;;;;;;;13.27;30.20;99794.81;4480360;32;32956;-73
2022/04/18 02:01:01;;;;;;;;;;;;;;;13.40;30.07;99795.47;4493020;31;33565;-66
2022/04/18 02:03:32;;;;;;;;;;;;;;;13.63;29.47;99792.63;4483689;31;35522;-67
2022/04/18 02:06:01;;;;;;;;;;;;;;;13.62;29.55;99794.47;4481759;31;33636;-65
2022/04/18 02:08:30;;;;;;;;;;;;;;;13.63;29.57;99796.16;4485176;31;32260;-65
2022/04/18 02:10:59;;;;;;;;;;;;;;;13.82;29.06;99792.72;4484933;31;35226;-67
2022/04/18 02:13:28;;;;;;;;;;;;;;;13.86;29.14;99790.63;4492185;31;35252;-69
2022/04/18 02:15:58;;;;;;;;;;;;;;;13.74;30.12;99784.50;4494979;31;34078;-66
2022/04/18 02:18:29;;;;;;;;;;;;;;;13.77;28.81;99784.19;4495045;31;32043;-64
2022/04/18 02:20:58;;;;;;;;;;;;;;;13.79;28.61;99774.16;4483787;31;34283;-66
2022/04/18 02:23:27;;;;;;;;;;;;;;;13.54;29.66;99771.91;4481657;31;34539;-66
2022/04/18 02:25:56;;;;;;;;;;;;;;;13.52;30.50;99777.44;4493450;31;34337;-64
2022/04/18 02:28:25;;;;;;;;;;;;;;;13.63;29.54;99765.75;4480719;32;34713;-69
2022/04/18 02:30:54;;;;;;;;;;;;;;;13.59;29.79;99775.91;4482466;32;33052;-65
2022/04/18 02:33:23;;;;;;;;;;;;;;;13.39;30.29;99760.66;4494281;31;35506;-72
2022/04/18 02:35:53;;;;;;;;;;;;;;;13.53;29.68;99765.69;4491192;31;34466;-65
2022/04/18 02:38:24;;;;;;;;;;;;;;;13.37;30.41;99768.00;4480354;31;33736;-67
2022/04/18 02:40:53;;;;;;;;;;;;;;;13.46;30.67;99765.37;4490349;31;35005;-67
2022/04/18 02:43:27;;;;;;;;;;;;;;;13.18;31.18;99752.56;4487553;31;33339;-66
2022/04/18 02:45:55;;;;;;;;;;;;;;;13.33;30.83;99758.50;4491678;31;34561;-68
2022/04/18 02:48:25;;;;;;;;;;;;;;;13.47;30.79;99763.53;4497403;31;32023;-68
2022/04/18 02:50:55;;;;;;;;;;;;;;;13.55;30.71;99749.41;4490914;31;33515;-68
2022/04/18 02:53:25;;;;;;;;;;;;;;;13.61;29.57;99751.56;4489941;31;34242;-68
2022/04/18 02:55:54;;;;;;;;;;;;;;;13.63;29.72;99742.37;4481207;32;32986;-67
2022/04/18 02:58:25;;;;;;;;;;;;;;;13.61;30.18;99739.00;4481432;31;32159;-66
2022/04/18 03:00:56;;;;;;;;;;;;;;;13.25;30.21;99748.38;4490270;31;34246;-68
2022/04/18 03:03:26;;;;;;;;;;;;;;;13.37;29.75;99735.75;4493750;31;34825;-66
2022/04/18 03:05:56;;;;;;;;;;;;;;;13.33;30.59;99737.84;4492813;31;32700;-68
2022/04/18 03:08:25;;;;;;;;;;;;;;;13.24;29.95;99739.47;4497317;31;34368;-68
2022/04/18 03:11:06;;;;;;;;;;;;;;;13.33;30.53;99734.31;4485590;31;33136;-67
2022/04/18 03:13:36;;;;;;;;;;;;;;;13.37;30.23;99733.06;4487803;31;33924;-66
2022/04/18 03:16:05;;;;;;;;;;;;;;;13.45;30.12;99733.22;4481226;31;32874;-69
2022/04/18 03:18:34;;;;;;;;;;;;;;;13.41;30.18;99731.78;4492406;31;33028;-66
2022/04/18 03:21:04;;;;;;;;;;;;;;;13.40;30.06;99725.56;4483309;31;34252;-66
2022/04/18 03:23:34;;;;;;;;;;;;;;;13.42;30.06;99728.97;4481562;31;34422;-68
2022/04/18 03:26:07;;;;;;;;;;;;;;;13.28;31.01;99726.63;4485002;31;34058;-67
2022/04/18 03:28:44;;;;;;;;;;;;;;;13.43;30.45;99733.38;4495381;31;34443;-69
2022/04/18 03:31:13;;;;;;;;;;;;;;;13.46;30.55;99726.87;4483075;31;32995;-68
2022/04/18 03:33:41;;;;;;;;;;;;;;;13.53;30.34;99722.66;4480408;31;34113;-66
2022/04/18 03:41:45;;;;;;;;;;;;;;;13.37;31.48;99720.47;4491001;31;32561;-66
2022/04/18 03:44:13;;;;;;;;;;;;;;;13.43;30.77;99717.25;4489439;31;34012;-68
2022/04/18 03:46:42;;;;;;;;;;;;;;;13.34;31.40;99717.19;4489289;31;33016;-68
2022/04/18 03:49:10;;;;;;;;;;;;;;;13.39;30.78;99707.75;4497396;31;33077;-67
2022/04/18 03:51:39;;;;;;;;;;;;;;;13.39;31.30;99713.13;4493059;31;34341;-67
2022/04/18 03:54:09;;;;;;;;;;;;;;;13.30;31.02;99705.84;4488130;31;33135;-67
2022/04/18 03:56:37;;;;;;;;;;;;;;;13.40;31.24;99696.00;4484249;31;35628;-67
2022/04/18 03:59:09;;;;;;;;;;;;;;;13.44;30.92;99701.94;4484062;31;32273;-70
2022/04/18 04:01:40;;;;;;;;;;;;;;;13.17;31.41;99700.66;4490708;31;32797;-65
2022/04/18 04:04:09;;;;;;;;;;;;;;;13.19;31.89;99697.81;4497441;31;33192;-66
2022/04/18 04:06:39;;;;;;;;;;;;;;;13.36;31.02;99699.94;4485190;31;34384;-65
2022/04/18 04:09:07;;;;;;;;;;;;;;;13.34;30.66;99695.69;4483733;31;33420;-65
2022/04/18 04:11:36;;;;;;;;;;;;;;;13.01;32.79;99701.13;4497388;31;33740;-66
2022/04/18 04:14:10;;;;;;;;;;;;;;;13.32;31.41;99693.09;4496289;31;32976;-65
2022/04/18 04:16:45;;;;;;;;;;;;;;;13.41;31.57;99697.69;4488417;31;33592;-65
2022/04/18 04:19:14;;;;;;;;;;;;;;;13.42;30.77;99696.72;4484071;31;33294;-68
2022/04/18 04:21:42;;;;;;;;;;;;;;;13.50;30.80;99696.03;4482410;31;34280;-65
2022/04/18 04:24:11;;;;;;;;;;;;;;;13.37;32.17;99695.41;4491620;31;37046;-66
2022/04/18 04:26:39;;;;;;;;;;;;;;;13.54;31.24;99693.94;4486160;31;34737;-65
2022/04/18 04:29:09;;;;;;;;;;;;;;;13.62;30.65;99694.97;4483407;31;33252;-65
2022/04/18 04:31:37;;;;;;;;;;;;;;;13.59;30.02;99697.94;4483108;31;35341;-66
2022/04/18 04:34:05;;;;;;;;;;;;;;;13.55;30.48;99696.50;4491955;31;34049;-65
2022/04/18 04:36:40;;;;;;;;;;;;;;;13.48;30.46;99690.81;4487322;31;34139;-65
2022/04/18 04:39:09;;;;;;;;;;;;;;;13.46;30.64;99690.09;4483264;31;33058;-65
2022/04/18 04:41:39;;;;;;;;;;;;;;;13.48;30.30;99692.62;4477954;31;35076;-65
2022/04/18 04:44:08;;;;;;;;;;;;;;;13.20;31.76;99702.22;4492077;31;34222;-65
2022/04/18 04:46:39;;;;;;;;;;;;;;;13.39;31.18;99690.75;4483235;31;33829;-65
2022/04/18 04:49:09;;;;;;;;;;;;;;;13.53;31.24;99690.41;4493775;31;33378;-68
2022/04/18 04:51:39;;;;;;;;;;;;;;;13.59;30.93;99692.53;4494013;31;33277;-65
2022/04/18 04:54:07;;;;;;;;;;;;;;;13.78;31.49;99683.69;4492868;31;34415;-66
2022/04/18 04:56:36;;;;;;;;;;;;;;;13.88;30.10;99687.25;4482754;32;35668;-66
2022/04/18 04:59:05;;;;;;;;;;;;;;;13.91;31.25;99686.16;4483022;32;34371;-66
2022/04/18 05:01:36;;;;;;;;;;;;;;;13.85;29.89;99679.47;4481065;31;33043;-66
2022/04/18 05:04:13;;;;;;;;;;;;;;;13.77;30.54;99679.28;4486249;31;33188;-66
2022/04/18 05:06:41;;;;;;;;;;;;;;;13.92;30.14;99679.78;4482162;31;34389;-66
2022/04/18 05:09:09;;;;;;;;;;;;;;;13.89;31.37;99677.34;4497388;31;33638;-66
2022/04/18 05:11:38;;;;;;;;;;;;;;;14.08;30.94;99687.31;4497230;31;34153;-65
2022/04/18 05:14:07;;;;;;;;;;;;;;;13.81;32.24;99688.81;4490004;31;35070;-68
2022/04/18 05:16:35;;;;;;;;;;;;;;;13.84;31.88;99690.38;4485995;31;34945;-68
2022/04/18 05:19:05;;;;;;;;;;;;;;;13.92;31.52;99685.16;4498251;31;33321;-68
2022/04/18 05:21:34;;;;;;;;;;;;;;;14.23;30.36;99679.69;4490260;31;35292;-68
2022/04/18 05:24:03;;;;;;;;;;;;;;;14.15;30.34;99683.91;4488101;31;33361;-66
2022/04/18 05:26:32;;;;;;;;;;;;;;;14.04;30.73;99680.50;4481891;31;32626;-66
2022/04/18 05:29:00;;;;;;;;;;;;;;;14.17;31.46;99683.78;4495309;31;33483;-68
2022/04/18 05:31:30;;;;;;;;;;;;;;;14.20;31.40;99688.91;4486788;31;33171;-67
2022/04/18 05:33:59;;;;;;;;;;;;;;;14.15;30.51;99686.59;4490162;31;35789;-67
2022/04/18 05:36:29;;;;;;;;;;;;;;;14.24;30.80;99684.09;4495188;31;34326;-66
2022/04/18 05:38:58;;;;;;;;;;;;;;;14.26;30.58;99685.66;4485901;31;33991;-68
2022/04/18 05:41:27;;;;;;;;;;;;;;;14.37;30.99;99681.97;4494042;31;32493;-70
2022/04/18 05:43:55;;;;;;;;;;;;;;;14.43;29.08;99676.88;4484737;31;33016;-69
2022/04/18 05:46:26;;;;;;;;;;;;;;;14.43;28.58;99676.03;4493017;31;34185;-66
2022/04/18 05:48:57;;;;;;;;;;;;;;;14.49;28.54;99674.63;4488621;31;33039;-65
2022/04/18 05:51:33;;;;;;;;;;;;;;;14.31;28.62;99683.38;4495421;31;33054;-64
2022/04/18 05:54:03;;;;;;;;;;;;;;;14.33;29.00;99684.09;4482265;32;33231;-67
2022/04/18 05:56:31;;;;;;;;;;;;;;;14.56;28.74;99679.31;4491535;31;33419;-64
2022/04/18 05:59:00;;;;;;;;;;;;;;;14.61;28.45;99678.91;4482749;31;32218;-66
2022/04/18 06:01:31;;;;;;;;;;;;;;;14.67;29.17;99679.19;4482259;31;33116;-65
2022/04/18 06:03:59;;;;;;;;;;;;;;;14.70;28.25;99682.56;4488153;31;34455;-65
2022/04/18 06:06:28;;;;;;;;;;;;;;;14.13;29.42;99682.38;4482727;31;33641;-65
2022/04/18 06:08:56;;;;;;;;;;;;;;;14.21;29.76;99679.81;4485640;31;32866;-65
2022/04/18 06:11:25;;;;;;;;;;;;;;;14.61;28.50;99671.69;4490075;31;35306;-65
2022/04/18 06:13:55;;;;;;;;;;;;;;;14.71;28.31;99668.97;4494317;31;34553;-68
2022/04/18 06:16:23;;;;;;;;;;;;;;;14.79;29.03;99670.94;4486259;31;34970;-66
2022/04/18 06:18:52;;;;;;;;;;;;;;;14.63;29.49;99672.38;4492571;31;33134;-65
2022/04/18 06:21:20;;;;;;;;;;;;;;;14.73;29.19;99679.59;4495811;31;35071;-65
2022/04/18 06:23:48;;;;;;;;;;;;;;;14.68;28.97;99678.19;4484320;31;36180;-65
2022/04/18 06:26:17;;;;;;;;;;;;;;;14.38;29.40;99684.53;4481968;31;33206;-65
2022/04/18 06:28:45;;;;;;;;;;;;;;;14.48;29.31;99680.97;4482141;31;33488;-68
2022/04/18 06:31:14;;;;;;;;;;;;;;;14.58;29.32;99682.72;4483061;31;33798;-64
2022/04/18 06:33:44;;;;;;;;;;;;;;;14.68;29.83;99674.66;4484685;31;34327;-67
2022/04/18 06:36:18;;;;;;;;;;;;;;;14.68;29.21;99680.03;4486508;31;34030;-67
2022/04/18 06:38:50;;;;;;;;;;;;;;;14.67;29.87;99676.50;4486100;31;33657;-66
2022/04/18 06:41:19;;;;;;;;;;;;;;;14.95;29.55;99681.13;4482301;31;34222;-66
2022/04/18 06:43:47;;;;;;;;;;;;;;;14.68;31.54;99672.78;4481686;31;33976;-65
2022/04/18 06:46:18;;;;;;;;;;;;;;;15.08;28.73;99678.97;4482870;31;34363;-66
2022/04/18 06:48:46;;;;;;;;;;;;;;;15.08;29.31;99674.44;4487498;31;33398;-67
2022/04/18 06:51:17;;;;;;;;;;;;;;;15.12;29.14;99681.25;4492111;31;32977;-66
2022/04/18 06:53:48;;;;;;;;;;;;;;;15.29;28.04;99668.84;4492831;31;34054;-65
2022/04/18 06:59:08;;;;;;;;;;;;;;;14.74;29.25;99673.22;4482363;31;33463;-67
2022/04/18 07:01:37;;;;;;;;;;;;;;;14.87;28.28;99669.25;4481655;31;34384;-68
2022/04/18 07:04:07;;;;;;;;;;;;;;;15.20;27.77;99674.28;4480846;31;33293;-67
2022/04/18 07:06:35;;;;;;;;;;;;;;;15.18;27.69;99670.88;4490168;31;34951;-67
2022/04/18 07:09:04;;;;;;;;;;;;;;;14.92;28.34;99676.88;4487376;31;32287;-66
2022/04/18 07:11:34;;;;;;;;;;;;;;;14.71;30.10;99673.53;4490905;31;33967;-66
2022/04/18 07:14:03;;;;;;;;;;;;;;;14.47;29.02;99677.44;4483689;31;34355;-66
2022/04/18 07:16:32;;;;;;;;;;;;;;;15.01;28.74;99676.00;4485691;31;32651;-73
2022/04/18 07:19:01;;;;;;;;;;;;;;;15.15;27.64;99674.69;4492225;31;33340;-67
2022/04/18 07:21:30;;;;;;;;;;;;;;;15.34;28.44;99671.09;4482720;31;34282;-68
2022/04/18 07:23:59;;;;;;;;;;;;;;;14.62;27.57;99672.53;4490431;31;34168;-68
2022/04/18 07:26:28;;;;;;;;;;;;;;;13.50;29.17;99678.06;4471539;32;32958;-67
2022/04/18 07:28:56;;;;;;;;;;;;;;;13.55;29.18;99679.50;4486818;31;33112;-67
2022/04/18 07:31:25;;;;;;;;;;;;;;;13.87;31.00;99672.13;4482347;31;33052;-66
2022/04/18 07:33:54;;;;;;;;;;;;;;;13.59;29.31;99679.09;4492445;31;36087;-66
2022/04/18 07:36:23;;;;;;;;;;;;;;;12.72;30.81;99683.94;4475671;31;32966;-67
2022/04/18 07:38:51;;;;;;;;;;;;;;;13.74;28.98;99672.38;4494337;31;32421;-67
2022/04/18 07:41:21;;;;;;;;;;;;;;;14.08;28.82;99671.16;4483250;31;34066;-67
2022/04/18 07:43:50;;;;;;;;;;;;;;;13.28;29.09;99673.72;4462326;31;910226;-67
2022/04/18 07:46:18;;;;;;;;;;;;;;;12.88;29.89;99676.28;4488502;31;32835;-67
2022/04/18 07:48:48;;;;;;;;;;;;;;;12.94;30.03;99674.91;4497063;31;33148;-67
2022/04/18 07:51:32;;;;;;;;;;;;;;;12.66;31.01;99671.88;4499011;31;33968;-67
2022/04/18 07:54:00;;;;;;;;;;;;;;;10.90;35.01;99668.19;4494856;31;35811;-66
2022/04/18 07:56:29;;;;;;;;;;;;;;;10.09;38.22;99679.66;4481166;32;35026;-67
2022/04/18 07:58:57;;;;;;;;;;;;;;;9.94;39.14;99678.97;4485921;31;32794;-67
2022/04/18 08:01:30;;;;;;;;;;;;;;;9.52;40.10;99680.25;4483128;32;33468;-67
2022/04/18 08:04:03;;;;;;;;;;;;;;;9.78;39.34;99681.06;4481194;31;35207;-66
2022/04/18 08:06:32;;;;;;;;;;;;;;;9.88;39.31;99684.75;4487934;31;34443;-68
2022/04/18 08:09:04;;;;;;;;;;;;;;;10.18;38.92;99680.81;4486043;31;33164;-66
2022/04/18 08:11:40;;;;;;;;;;;;;;;10.50;38.50;99686.47;4493677;31;32924;-67
2022/04/18 08:14:09;;;;;;;;;;;;;;;11.00;37.53;99670.16;4483992;31;34284;-66
2022/04/18 08:16:38;;;;;;;;;;;;;;;9.47;39.58;99669.03;4482526;31;34462;-66
2022/04/18 08:19:12;;;;;;;;;;;;;;;10.79;37.93;99662.00;4487856;31;32663;-67
2022/04/18 08:21:40;;;;;;;;;;;;;;;10.98;36.42;99661.38;4484994;31;35288;-66
2022/04/18 08:24:08;;;;;;;;;;;;;;;11.61;35.87;99654.59;4481253;32;35187;-69
2022/04/18 08:26:38;;;;;;;;;;;;;;;10.84;37.00;99655.28;4482975;32;34078;-66
2022/04/18 08:29:07;;;;;;;;;;;;;;;11.14;36.15;99645.84;4483535;31;33641;-66
2022/04/18 08:31:37;;;;;;;;;;;;;;;10.86;36.33;99645.31;4482956;32;32764;-66
2022/04/18 08:34:12;;;;;;;;;;;;;;;11.86;34.48;99645.47;4483109;31;34490;-69
2022/04/18 08:36:41;;;;;;;;;;;;;;;11.72;34.03;99641.19;4482306;31;34196;-68
2022/04/18 08:39:11;;;;;;;;;;;;;;;12.33;33.20;99646.06;4482654;31;33442;-66
2022/04/18 08:41:44;;;;;;;;;;;;;;;12.85;33.04;99630.03;4482984;31;34059;-66
2022/04/18 08:44:13;;;;;;;;;;;;;;;13.24;32.22;99623.91;4483634;31;33265;-65
2022/04/18 08:46:41;;;;;;;;;;;;;;;13.32;31.63;99620.53;4479219;31;34306;-65
2022/04/18 08:54:48;;;;;;;;;;;;;;;13.23;29.73;99619.50;4479634;31;35441;-65
2022/04/18 08:57:25;;;;;;;;;;;;;;;13.98;29.28;99611.94;4494405;31;34863;-68
2022/04/18 09:00:09;;;;;;;;;;;;;;;14.28;28.51;99607.44;4491849;31;33528;-66
2022/04/18 09:02:39;;;;;;;;;;;;;;;14.42;28.11;99612.41;4492347;31;33141;-65
2022/04/18 09:05:11;;;;;;;;;;;;;;;14.41;27.89;99608.00;4483586;31;34395;-65
2022/04/18 09:07:41;;;;;;;;;;;;;;;14.61;28.09;99600.78;4496118;31;32961;-65
2022/04/18 09:10:11;;;;;;;;;;;;;;;15.08;27.50;99593.56;4484663;31;33526;-66
2022/04/18 09:12:43;;;;;;;;;;;;;;;15.02;26.93;99596.00;4483096;32;32940;-67
2022/04/18 09:15:13;;;;;;;;;;;;;;;15.14;27.09;99592.97;4494082;31;35679;-67
2022/04/18 09:17:43;;;;;;;;;;;;;;;15.45;26.10;99603.50;4483087;32;34658;-67
2022/04/18 09:20:15;;;;;;;;;;;;;;;15.19;26.48;99592.56;4482518;31;34538;-68
2022/04/18 09:22:46;;;;;;;;;;;;;;;15.57;26.23;99598.78;4490732;31;35132;-67
2022/04/18 09:25:17;;;;;;;;;;;;;;;15.60;27.47;99595.75;4482116;31;32998;-67
2022/04/18 09:27:52;;;;;;;;;;;;;;;16.06;25.73;99591.25;4493542;31;33099;-67
2022/04/18 09:30:24;;;;;;;;;;;;;;;15.94;26.71;99593.31;4495061;31;33589;-67
2022/04/18 09:32:56;;;;;;;;;;;;;;;15.59;27.94;99585.97;4486122;31;33116;-70
2022/04/18 09:35:28;;;;;;;;;;;;;;;16.11;25.77;99582.66;4494725;31;34304;-69
2022/04/18 09:38:00;;;;;;;;;;;;;;;16.43;24.06;99580.25;4490951;31;34916;-67
2022/04/18 09:40:34;;;;;;;;;;;;;;;15.60;24.66;99577.75;4468223;32;33480;-67
2022/04/18 09:43:07;;;;;;;;;;;;;;;16.37;24.44;99577.31;4481880;32;35114;-66
2022/04/18 09:45:43;;;;;;;;;;;;;;;17.16;24.54;99561.00;4483972;31;34173;-66
2022/04/18 09:48:17;;;;;;;;;;;;;;;17.73;23.54;99560.38;4484117;31;34056;-67
2022/04/18 09:51:01;;;;;;;;;;;;;;;18.10;22.05;99551.84;4485375;31;33259;-69
2022/04/18 09:53:31;;;;;;;;;;;;;;;15.68;24.43;99554.56;4481325;31;34649;-67
2022/04/18 09:55:59;;;;;;;;;;;;;;;16.03;23.79;99546.50;4482847;31;35413;-66
2022/04/18 09:58:30;;;;;;;;;;;;;;;14.70;24.74;99542.50;4480234;31;35179;-67
2022/04/18 10:01:20;;;;;;;;;;;;;;;15.64;24.78;99545.91;4482350;32;33112;-67
2022/04/18 10:03:52;;;;;;;;;;;;;;;16.66;24.06;99540.09;4467813;31;33632;-67
2022/04/18 10:06:21;;;;;;;;;;;;;;;17.02;23.04;99533.75;4484299;31;33667;-67
2022/04/18 10:08:50;;;;;;;;;;;;;;;17.48;22.62;99529.69;4470645;32;33105;-66
2022/04/18 10:11:21;;;;;;;;;;;;;;;16.62;23.84;99532.44;4467572;32;32133;-67
2022/04/18 10:13:51;;;;;;;;;;;;;;;16.89;21.81;99524.22;4474904;31;33156;-67
2022/04/18 10:16:20;;;;;;;;;;;;;;;17.74;21.67;99517.94;4483797;31;33015;-67
2022/04/18 10:18:56;;;;;;;;;;;;;;;18.19;21.22;99516.66;4488619;31;32491;-67
2022/04/18 10:21:32;;;;;;;;;;;;;;;18.67;20.94;99515.75;4475078;32;32195;-66
2022/04/18 10:24:00;;;;;;;;;;;;;;;19.36;19.40;99513.37;4468477;31;33890;-66
2022/04/18 10:26:55;;;;;;;;;;;;;;;19.61;18.88;99505.91;4497638;31;34325;-66
2022/04/18 10:29:25;;;;;;;;;;;;;;;19.26;19.80;99507.28;4483388;31;34223;-67
2022/04/18 10:32:03;;;;;;;;;;;;;;;19.26;20.98;99505.44;4497885;31;33221;-66
2022/04/18 10:34:31;;;;;;;;;;;;;;;19.34;20.44;99496.41;4483411;31;33907;-66
2022/04/18 10:37:00;;;;;;;;;;;;;;;19.47;19.50;99501.25;4470164;32;34116;-68
2022/04/18 10:39:36;;;;;;;;;;;;;;;19.77;19.08;99489.59;4468850;32;32679;-66
2022/04/18 10:42:19;;;;;;;;;;;;;;;19.31;19.14;99496.75;4484673;31;32136;-68
2022/04/18 10:44:57;;;;;;;;;;;;;;;19.69;18.80;99500.50;4488072;31;33473;-66
2022/04/18 10:47:26;;;;;;;;;;;;;;;19.26;19.23;99494.59;4471729;31;32901;-67
2022/04/18 10:50:14;;;;;;;;;;;;;;;18.51;19.13;99488.69;4485298;31;34022;-67
2022/04/18 10:53:05;;;;;;;;;;;;;;;18.44;19.99;99493.09;4492335;31;31947;-67
2022/04/18 10:55:35;;;;;;;;;;;;;;;17.82;20.63;99486.34;4489715;31;32655;-68
2022/04/18 10:58:11;;;;;;;;;;;;;;;18.92;18.97;99481.34;4489103;31;34434;-67
2022/04/18 11:00:58;;;;;;;;;;;;;;;18.95;18.55;99472.84;4487097;31;34500;-68
2022/04/18 11:03:52;;;;;;;;;;;;;;;18.56;18.11;99470.06;4489980;31;32306;-66
2022/04/18 11:06:47;;;;;;;;;;;;;;;18.38;20.07;99464.81;4497948;31;33827;-66
2022/04/18 11:09:28;;;;;;;;;;;;;;;18.24;19.25;99469.09;4490996;31;33205;-67
2022/04/18 11:12:06;;;;;;;;;;;;;;;17.14;20.78;99464.81;4491095;31;32737;-66
2022/04/18 11:14:45;;;;;;;;;;;;;;;16.33;21.36;99476.03;4486721;31;32259;-66
2022/04/18 11:17:40;;;;;;;;;;;;;;;17.20;20.57;99461.47;4486573;32;33223;-66
2022/04/18 11:20:27;;;;;;;;;;;;;;;15.95;21.67;99460.03;4485951;31;34321;-66
2022/04/18 11:23:17;;;;;;;;;;;;;;;16.36;22.11;99463.03;4489173;31;34789;-66
2022/04/18 11:25:50;;;;;;;;;;;;;;;16.01;24.76;99454.00;4488884;31;32123;-66
2022/04/18 11:28:21;;;;;;;;;;;;;;;16.04;24.30;99459.09;4488684;31;33777;-71
2022/04/18 11:30:49;;;;;;;;;;;;;;;16.05;25.18;99452.72;4486573;31;32983;-73
2022/04/18 11:33:20;;;;;;;;;;;;;;;16.42;24.09;99457.00;4488191;31;34024;-65
2022/04/18 11:36:02;;;;;;;;;;;;;;;16.58;23.98;99461.66;4498439;31;33408;-65
2022/04/18 11:38:43;;;;;;;;;;;;;;;15.69;24.40;99453.75;4491479;31;32780;-65
2022/04/18 11:41:18;;;;;;;;;;;;;;;16.44;24.65;99454.16;4483464;31;33031;-68
2022/04/18 11:43:46;;;;;;;;;;;;;;;16.89;24.25;99463.91;4487588;31;34363;-66
2022/04/18 11:46:16;;;;;;;;;;;;;;;17.43;22.55;99462.56;4489937;31;32138;-64
2022/04/18 11:48:44;;;;;;;;;;;;;;;17.20;21.56;99462.31;4473252;32;35796;-63
2022/04/18 11:51:11;;;;;;;;;;;;;;;16.09;22.23;99453.25;4465606;31;32660;-65
2022/04/18 11:53:41;;;;;;;;;;;;;;;16.47;21.92;99468.19;4485939;31;34416;-63
2022/04/18 11:56:09;;;;;;;;;;;;;;;16.40;22.72;99464.41;4485131;31;33873;-63
2022/04/18 11:58:39;;;;;;;;;;;;;;;14.49;26.94;99469.97;4486420;31;33799;-64
2022/04/18 12:06:47;;;;;;;;;;;;;;;14.79;28.11;99480.50;4480600;31;33259;-62
2022/04/18 12:09:21;;;;;;;;;;;;;;;15.24;28.06;99473.47;4489811;31;33888;-63
2022/04/18 12:11:49;;;;;;;;;;;;;;;15.79;26.76;99460.78;4486826;31;35466;-64
2022/04/18 12:14:18;;;;;;;;;;;;;;;15.99;26.94;99453.34;4469015;32;32960;-64
2022/04/18 12:16:46;;;;;;;;;;;;;;;15.58;27.46;99452.09;4466391;32;31320;-68
2022/04/18 12:19:15;;;;;;;;;;;;;;;16.10;25.53;99443.28;4483653;31;34070;-66
2022/04/18 12:21:49;;;;;;;;;;;;;;;15.70;27.11;99444.66;4484376;31;34017;-66
2022/04/18 12:24:17;;;;;;;;;;;;;;;15.61;26.28;99446.41;4489202;31;35189;-68
2022/04/18 12:26:49;;;;;;;;;;;;;;;16.44;26.18;99440.66;4472935;32;31874;-67
2022/04/18 12:29:19;;;;;;;;;;;;;;;17.19;24.65;99438.16;4485804;31;33619;-66
2022/04/18 12:31:49;;;;;;;;;;;;;;;17.12;25.71;99437.97;4474582;31;32768;-67
2022/04/18 12:34:17;;;;;;;;;;;;;;;15.17;26.84;99438.19;4490176;31;34392;-68
2022/04/18 12:36:55;;;;;;;;;;;;;;;16.43;26.14;99423.59;4489796;31;33051;-69
2022/04/18 12:39:25;;;;;;;;;;;;;;;15.58;28.07;99433.22;4487109;31;33038;-68
2022/04/18 12:42:06;;;;;;;;;;;;;;;13.91;31.66;99430.56;4485740;31;35011;-67
2022/04/18 12:44:35;;;;;;;;;;;;;;;13.27;32.29;99431.97;4488608;31;33454;-70
2022/04/18 12:47:19;;;;;;;;;;;;;;;13.63;32.64;99425.03;4487860;31;34241;-69
2022/04/18 12:50:07;;;;;;;;;;;;;;;14.23;31.13;99416.75;4492165;31;35336;-71
2022/04/18 12:52:43;;;;;;;;;;;;;;;14.36;30.70;99417.28;4468248;31;32894;-69
2022/04/18 12:55:12;;;;;;;;;;;;;;;14.78;31.06;99405.22;4488655;31;34149;-69
2022/04/18 12:57:40;;;;;;;;;;;;;;;13.93;31.98;99398.94;4468644;31;31548;-70
2022/04/18 13:00:09;;;;;;;;;;;;;;;14.04;32.19;99392.59;4471082;31;32982;-70
2022/04/18 13:02:38;;;;;;;;;;;;;;;13.41;32.66;99396.59;4461902;31;33962;-69
2022/04/18 13:05:06;;;;;;;;;;;;;;;12.84;33.93;99395.53;4484720;31;34510;-70
2022/04/18 13:07:39;;;;;;;;;;;;;;;13.11;34.25;99385.94;4494992;31;32284;-68
2022/04/18 13:10:08;;;;;;;;;;;;;;;13.18;33.09;99385.25;4475940;31;33756;-68
2022/04/18 13:12:36;;;;;;;;;;;;;;;14.04;30.84;99379.97;4483875;31;33237;-68
2022/04/18 13:15:05;;;;;;;;;;;;;;;13.87;32.68;99373.50;4468210;31;34054;-66
2022/04/18 13:17:54;;;;;;;;;;;;;;;13.26;34.27;99379.22;4469007;31;32383;-65
2022/04/18 13:20:21;;;;;;;;;;;;;;;13.46;33.25;99374.69;4490611;31;33061;-63
2022/04/18 13:22:50;;;;;;;;;;;;;;;12.89;34.73;99370.91;4483792;31;34445;-62
2022/04/18 13:25:18;;;;;;;;;;;;;;;13.72;32.94;99366.88;4470178;31;34550;-62
2022/04/18 13:27:54;;;;;;;;;;;;;;;13.83;32.30;99365.84;4485919;31;32121;-67
2022/04/18 13:30:23;;;;;;;;;;;;;;;14.43;30.65;99358.28;4484869;31;34141;-63
2022/04/18 13:32:52;;;;;;;;;;;;;;;14.78;28.73;99348.66;4483199;31;33125;-65